createdAt,value
2017-07-01T00:00:35.749Z,0
2017-07-01T00:01:37.385Z,0
2017-07-01T00:02:39.029Z,0
2017-07-01T00:03:40.678Z,0
2017-07-01T00:04:42.326Z,0
2017-07-01T00:05:43.968Z,0
2017-07-01T00:06:45.614Z,0
2017-07-01T00:07:47.282Z,0
2017-07-01T00:08:48.953Z,0
2017-07-01T00:09:50.568Z,0
2017-07-01T00:10:52.199Z,0
2017-07-01T00:11:53.840Z,0
2017-07-01T00:12:55.487Z,0
2017-07-01T00:13:57.127Z,0
2017-07-01T00:14:58.761Z,0
2017-07-01T00:16:00.484Z,0
2017-07-01T00:17:02.120Z,0
2017-07-01T00:18:03.786Z,0
2017-07-01T00:19:05.438Z,0
2017-07-01T00:20:07.144Z,0
2017-07-01T00:21:08.813Z,0
2017-07-01T00:22:10.447Z,0
2017-07-01T00:23:12.089Z,0
2017-07-01T00:24:13.734Z,0
2017-07-01T00:25:15.392Z,0
2017-07-01T00:26:17.046Z,0
2017-07-01T00:27:18.688Z,0
2017-07-01T00:28:20.322Z,0
2017-07-01T00:29:21.954Z,0
2017-07-01T00:30:23.586Z,0
2017-07-01T00:31:25.234Z,0
2017-07-01T00:32:26.868Z,0
2017-07-01T00:33:28.505Z,0
2017-07-01T00:34:30.187Z,0
2017-07-01T00:35:31.830Z,0
2017-07-01T00:36:33.490Z,0
2017-07-01T00:37:35.181Z,0
2017-07-01T00:38:36.823Z,0
2017-07-01T00:39:38.488Z,0
2017-07-01T00:40:44.534Z,0
2017-07-01T00:41:46.153Z,0
2017-07-01T00:42:47.840Z,0
2017-07-01T00:43:49.534Z,0
2017-07-01T00:44:51.875Z,0
2017-07-01T00:45:53.517Z,0
2017-07-01T00:46:55.167Z,0
2017-07-01T00:47:56.804Z,0
2017-07-01T00:48:58.614Z,0
2017-07-01T00:50:01.260Z,0
2017-07-01T00:51:02.938Z,0
2017-07-01T00:52:04.601Z,0
2017-07-01T00:53:06.232Z,0
2017-07-01T00:54:07.934Z,0
2017-07-01T00:55:13.334Z,0
2017-07-01T00:56:15.050Z,0
2017-07-01T00:57:16.704Z,0
2017-07-01T00:58:18.333Z,0
2017-07-01T00:59:20.011Z,0
2017-07-01T01:00:21.692Z,0
2017-07-01T01:01:23.341Z,0
2017-07-01T01:02:25.074Z,0
2017-07-01T01:03:26.700Z,0
2017-07-01T01:04:28.352Z,0
2017-07-01T01:05:30.034Z,0
2017-07-01T01:06:31.672Z,0
2017-07-01T01:07:33.310Z,0
2017-07-01T01:08:34.964Z,0
2017-07-01T01:09:36.609Z,0
2017-07-01T01:10:38.254Z,0
2017-07-01T01:11:39.939Z,0
2017-07-01T01:12:41.595Z,0
2017-07-01T01:13:43.234Z,0
2017-07-01T01:14:44.916Z,0
2017-07-01T01:15:46.601Z,0
2017-07-01T01:16:48.223Z,0
2017-07-01T01:17:49.915Z,0
2017-07-01T01:18:51.554Z,0
2017-07-01T01:19:53.200Z,0
2017-07-01T01:20:54.866Z,0
2017-07-01T01:21:56.512Z,0
2017-07-01T01:22:58.129Z,0
2017-07-01T01:23:59.777Z,0
2017-07-01T01:25:01.407Z,0
2017-07-01T01:26:03.044Z,0
2017-07-01T01:27:04.735Z,0
2017-07-01T01:28:06.355Z,0
2017-07-01T01:29:08.054Z,0
2017-07-01T01:30:09.729Z,0
2017-07-01T01:31:11.380Z,0
2017-07-01T01:32:13.018Z,0
2017-07-01T01:33:14.671Z,0
2017-07-01T01:34:16.307Z,0
2017-07-01T01:35:17.942Z,0
2017-07-01T01:36:19.620Z,0
2017-07-01T01:37:21.240Z,0
2017-07-01T01:38:22.911Z,0
2017-07-01T01:39:24.558Z,0
2017-07-01T01:40:26.195Z,0
2017-07-01T01:41:27.833Z,0
2017-07-01T01:42:29.495Z,0
2017-07-01T01:43:31.137Z,0
2017-07-01T01:44:32.776Z,0
2017-07-01T01:45:34.426Z,0
2017-07-01T01:46:36.060Z,0
2017-07-01T01:47:37.701Z,0
2017-07-01T01:48:39.346Z,0
2017-07-01T01:49:40.991Z,0
2017-07-01T01:50:42.631Z,0
2017-07-01T01:51:44.287Z,0
2017-07-01T01:52:45.932Z,0
2017-07-01T01:53:47.582Z,0
2017-07-01T01:54:49.224Z,0
2017-07-01T01:55:50.864Z,0
2017-07-01T01:56:52.500Z,0
2017-07-01T01:57:54.151Z,0
2017-07-01T01:58:55.793Z,0
2017-07-01T01:59:57.437Z,0
2017-07-01T02:00:59.092Z,0
2017-07-01T02:02:00.739Z,0
2017-07-01T02:03:02.411Z,0
2017-07-01T02:04:04.051Z,0
2017-07-01T02:05:05.686Z,0
2017-07-01T02:06:07.356Z,0
2017-07-01T02:07:08.998Z,0
2017-07-01T02:08:10.631Z,0
2017-07-01T02:09:12.310Z,0
2017-07-01T02:10:13.952Z,0
2017-07-01T02:11:15.587Z,0
2017-07-01T02:12:17.290Z,0
2017-07-01T02:13:18.927Z,0
2017-07-01T02:14:20.573Z,0
2017-07-01T02:15:22.219Z,0
2017-07-01T02:16:23.867Z,0
2017-07-01T02:17:25.499Z,0
2017-07-01T02:18:27.168Z,0
2017-07-01T02:19:28.810Z,0
2017-07-01T02:20:30.502Z,0
2017-07-01T02:21:32.167Z,0
2017-07-01T02:22:33.804Z,0
2017-07-01T02:23:35.446Z,0
2017-07-01T02:24:37.098Z,0
2017-07-01T02:25:38.728Z,0
2017-07-01T02:26:40.358Z,0
2017-07-01T02:27:42.007Z,0
2017-07-01T02:28:43.655Z,0
2017-07-01T02:29:45.289Z,0
2017-07-01T02:30:46.948Z,0
2017-07-01T02:31:48.598Z,0
2017-07-01T02:32:50.258Z,0
2017-07-01T02:33:51.899Z,0
2017-07-01T02:34:53.543Z,0
2017-07-01T02:35:55.170Z,0
2017-07-01T02:36:56.871Z,0
2017-07-01T02:37:58.522Z,0
2017-07-01T02:39:00.158Z,0
2017-07-01T02:40:01.815Z,0
2017-07-01T02:41:03.464Z,0
2017-07-01T02:42:05.096Z,0
2017-07-01T02:43:06.759Z,0
2017-07-01T02:44:08.556Z,0
2017-07-01T02:45:10.204Z,0
2017-07-01T02:46:11.959Z,0
2017-07-01T02:47:13.582Z,0
2017-07-01T02:48:15.232Z,0
2017-07-01T02:49:16.886Z,0
2017-07-01T02:50:18.526Z,0
2017-07-01T02:51:20.163Z,0
2017-07-01T02:52:21.848Z,0
2017-07-01T02:53:23.517Z,0
2017-07-01T02:54:25.152Z,0
2017-07-01T02:55:26.791Z,0
2017-07-01T02:56:28.429Z,0
2017-07-01T02:57:30.066Z,0
2017-07-01T02:58:31.709Z,0
2017-07-01T02:59:33.388Z,0
2017-07-01T03:00:35.024Z,0
2017-07-01T03:01:36.700Z,0
2017-07-01T03:02:38.363Z,0
2017-07-01T03:03:40.002Z,0
2017-07-01T03:04:41.643Z,0
2017-07-01T03:05:43.291Z,0
2017-07-01T03:06:44.950Z,0
2017-07-01T03:07:46.586Z,0
2017-07-01T03:08:48.239Z,0
2017-07-01T03:09:49.873Z,0
2017-07-01T03:10:51.507Z,0
2017-07-01T03:11:53.167Z,0
2017-07-01T03:12:54.803Z,0
2017-07-01T03:13:56.440Z,0
2017-07-01T03:14:58.084Z,0
2017-07-01T03:15:59.724Z,0
2017-07-01T03:17:01.358Z,0
2017-07-01T03:18:03.041Z,0
2017-07-01T03:19:04.695Z,0
2017-07-01T03:20:06.334Z,0
2017-07-01T03:21:08.001Z,0
2017-07-01T03:22:09.641Z,0
2017-07-01T03:23:11.280Z,0
2017-07-01T03:24:12.980Z,0
2017-07-01T03:25:14.619Z,0
2017-07-01T03:26:16.255Z,0
2017-07-01T03:27:17.900Z,0
2017-07-01T03:28:19.557Z,0
2017-07-01T03:29:21.196Z,0
2017-07-01T03:30:22.970Z,0
2017-07-01T03:31:24.630Z,0
2017-07-01T03:32:26.306Z,0
2017-07-01T03:33:28.027Z,0
2017-07-01T03:34:29.679Z,0
2017-07-01T03:35:31.413Z,0
2017-07-01T03:36:33.077Z,0
2017-07-01T03:37:34.756Z,0
2017-07-01T03:38:36.435Z,0
2017-07-01T03:39:38.118Z,0
2017-07-01T03:40:39.769Z,0
2017-07-01T03:41:41.456Z,0
2017-07-01T03:42:43.132Z,0
2017-07-01T03:43:44.782Z,0
2017-07-01T03:44:46.432Z,0
2017-07-01T03:45:48.157Z,0
2017-07-01T03:46:49.846Z,0
2017-07-01T03:47:51.557Z,0
2017-07-01T03:48:53.248Z,0
2017-07-01T03:49:54.918Z,0
2017-07-01T03:50:56.594Z,0
2017-07-01T03:51:58.332Z,0
2017-07-01T03:53:00.065Z,0
2017-07-01T03:54:01.861Z,0
2017-07-01T03:55:03.556Z,0
2017-07-01T03:56:05.217Z,0
2017-07-01T03:57:06.914Z,0
2017-07-01T03:58:08.555Z,0
2017-07-01T03:59:10.218Z,0
2017-07-01T04:00:11.894Z,0
2017-07-01T04:01:13.560Z,0
2017-07-01T04:02:15.222Z,0
2017-07-01T04:03:16.985Z,0
2017-07-01T04:04:18.648Z,0
2017-07-01T04:05:20.316Z,5
2017-07-01T04:06:22.037Z,5
2017-07-01T04:07:23.708Z,0
2017-07-01T04:08:25.408Z,0
2017-07-01T04:09:27.089Z,0
2017-07-01T04:10:28.766Z,0
2017-07-01T04:11:30.416Z,0
2017-07-01T04:12:32.089Z,5
2017-07-01T04:13:33.732Z,5
2017-07-01T04:14:35.377Z,5
2017-07-01T04:15:37.066Z,5
2017-07-01T04:16:38.737Z,5
2017-07-01T04:17:40.431Z,5
2017-07-01T04:18:42.092Z,10
2017-07-01T04:19:43.756Z,10
2017-07-01T04:20:45.418Z,5
2017-07-01T04:21:47.139Z,5
2017-07-01T04:22:48.791Z,5
2017-07-01T04:23:50.431Z,5
2017-07-01T04:24:52.130Z,5
2017-07-01T04:25:53.775Z,0
2017-07-01T04:26:55.423Z,5
2017-07-01T04:27:57.119Z,5
2017-07-01T04:28:58.816Z,0
2017-07-01T04:30:00.484Z,0
2017-07-01T04:31:02.159Z,0
2017-07-01T04:32:03.823Z,0
2017-07-01T04:33:05.463Z,0
2017-07-01T04:34:07.244Z,0
2017-07-01T04:35:08.926Z,0
2017-07-01T04:36:10.595Z,0
2017-07-01T04:37:12.293Z,0
2017-07-01T04:38:13.992Z,0
2017-07-01T04:39:15.732Z,0
2017-07-01T04:40:17.479Z,5
2017-07-01T04:41:19.134Z,5
2017-07-01T04:42:20.783Z,5
2017-07-01T04:43:22.540Z,5
2017-07-01T04:44:24.224Z,5
2017-07-01T04:45:25.891Z,10
2017-07-01T04:46:27.622Z,10
2017-07-01T04:47:29.372Z,5
2017-07-01T04:48:31.029Z,5
2017-07-01T04:49:32.726Z,5
2017-07-01T04:50:34.393Z,10
2017-07-01T04:51:36.031Z,10
2017-07-01T04:52:37.765Z,5
2017-07-01T04:53:39.401Z,10
2017-07-01T04:54:41.043Z,5
2017-07-01T04:55:42.719Z,5
2017-07-01T04:56:44.346Z,5
2017-07-01T04:57:45.997Z,5
2017-07-01T04:58:47.653Z,5
2017-07-01T04:59:49.282Z,5
2017-07-01T05:00:50.921Z,5
2017-07-01T05:01:52.635Z,15
2017-07-01T05:02:54.230Z,20
2017-07-01T05:03:55.869Z,20
2017-07-01T05:04:57.550Z,20
2017-07-01T05:05:59.190Z,25
2017-07-01T05:07:00.838Z,25
2017-07-01T05:08:02.534Z,20
2017-07-01T05:09:04.273Z,15
2017-07-01T05:10:05.913Z,10
2017-07-01T05:11:07.591Z,10
2017-07-01T05:12:09.228Z,10
2017-07-01T05:13:10.865Z,10
2017-07-01T05:14:12.671Z,5
2017-07-01T05:15:14.307Z,5
2017-07-01T05:16:15.971Z,10
2017-07-01T05:17:17.712Z,10
2017-07-01T05:18:19.347Z,10
2017-07-01T05:19:20.995Z,10
2017-07-01T05:20:22.704Z,10
2017-07-01T05:21:24.347Z,15
2017-07-01T05:22:26.009Z,10
2017-07-01T05:23:27.723Z,10
2017-07-01T05:24:29.378Z,10
2017-07-01T05:25:31.032Z,10
2017-07-01T05:26:32.725Z,10
2017-07-01T05:27:34.444Z,10
2017-07-01T05:28:36.107Z,20
2017-07-01T05:29:37.861Z,20
2017-07-01T05:30:39.512Z,20
2017-07-01T05:31:41.361Z,20
2017-07-01T05:32:44.212Z,15
2017-07-01T05:33:45.861Z,15
2017-07-01T05:34:47.519Z,10
2017-07-01T05:35:49.183Z,10
2017-07-01T05:36:50.857Z,10
2017-07-01T05:37:52.587Z,10
2017-07-01T05:38:54.225Z,10
2017-07-01T05:39:55.929Z,10
2017-07-01T05:40:57.704Z,15
2017-07-01T05:41:59.369Z,15
2017-07-01T05:43:01.036Z,15
2017-07-01T05:44:02.743Z,15
2017-07-01T05:45:04.429Z,15
2017-07-01T05:46:06.264Z,20
2017-07-01T05:47:08.011Z,20
2017-07-01T05:48:09.734Z,20
2017-07-01T05:49:11.418Z,20
2017-07-01T05:50:13.093Z,20
2017-07-01T05:51:14.880Z,20
2017-07-01T05:52:16.549Z,15
2017-07-01T05:53:18.312Z,15
2017-07-01T05:54:20.002Z,15
2017-07-01T05:55:21.753Z,20
2017-07-01T05:56:23.432Z,15
2017-07-01T05:57:25.091Z,20
2017-07-01T05:58:26.738Z,15
2017-07-01T05:59:28.443Z,15
2017-07-01T06:00:30.157Z,10
2017-07-01T06:01:31.811Z,10
2017-07-01T06:02:33.601Z,10
2017-07-01T06:03:35.276Z,15
2017-07-01T06:04:36.995Z,15
2017-07-01T06:05:38.683Z,20
2017-07-01T06:06:40.377Z,20
2017-07-01T06:07:42.035Z,20
2017-07-01T06:08:43.728Z,25
2017-07-01T06:09:45.412Z,20
2017-07-01T06:10:47.081Z,15
2017-07-01T06:11:49.687Z,20
2017-07-01T06:12:51.399Z,20
2017-07-01T06:13:53.366Z,20
2017-07-01T06:14:55.053Z,25
2017-07-01T06:15:56.771Z,25
2017-07-01T06:16:58.443Z,20
2017-07-01T06:18:00.122Z,25
2017-07-01T06:19:01.793Z,35
2017-07-01T06:20:03.579Z,40
2017-07-01T06:21:05.249Z,45
2017-07-01T06:22:06.922Z,50
2017-07-01T06:23:08.643Z,55
2017-07-01T06:24:10.353Z,60
2017-07-01T06:25:12.062Z,60
2017-07-01T06:26:13.743Z,60
2017-07-01T06:27:15.468Z,60
2017-07-01T06:28:17.108Z,60
2017-07-01T06:29:18.789Z,55
2017-07-01T06:30:20.453Z,50
2017-07-01T06:31:22.109Z,45
2017-07-01T06:32:23.793Z,40
2017-07-01T06:33:26.281Z,35
2017-07-01T06:34:27.923Z,35
2017-07-01T06:35:29.552Z,35
2017-07-01T06:36:31.188Z,30
2017-07-01T06:37:32.841Z,35
2017-07-01T06:38:34.482Z,35
2017-07-01T06:39:36.126Z,35
2017-07-01T06:40:37.777Z,40
2017-07-01T06:41:39.414Z,40
2017-07-01T06:42:41.055Z,40
2017-07-01T06:43:42.731Z,35
2017-07-01T06:44:44.377Z,25
2017-07-01T06:45:46.016Z,25
2017-07-01T06:46:47.650Z,20
2017-07-01T06:47:49.293Z,20
2017-07-01T06:48:50.935Z,30
2017-07-01T06:49:52.577Z,25
2017-07-01T06:50:54.223Z,25
2017-07-01T06:51:55.855Z,25
2017-07-01T06:52:57.536Z,25
2017-07-01T06:54:00.008Z,30
2017-07-01T06:55:01.653Z,40
2017-07-01T06:56:03.417Z,45
2017-07-01T06:57:05.059Z,40
2017-07-01T06:58:06.709Z,30
2017-07-01T06:59:08.502Z,25
2017-07-01T07:00:10.184Z,25
2017-07-01T07:01:12.121Z,25
2017-07-01T07:02:13.763Z,35
2017-07-01T07:03:15.474Z,50
2017-07-01T07:04:17.125Z,50
2017-07-01T07:05:18.824Z,55
2017-07-01T07:06:22.142Z,55
2017-07-01T07:07:25.204Z,55
2017-07-01T07:08:26.964Z,55
2017-07-01T07:09:28.770Z,55
2017-07-01T07:10:30.624Z,55
2017-07-01T07:11:32.357Z,55
2017-07-01T07:12:34.129Z,60
2017-07-01T07:13:35.796Z,60
2017-07-01T07:14:37.468Z,65
2017-07-01T07:15:39.165Z,70
2017-07-01T07:16:40.829Z,65
2017-07-01T07:17:42.511Z,60
2017-07-01T07:18:44.554Z,60
2017-07-01T07:19:46.358Z,65
2017-07-01T07:20:48.005Z,60
2017-07-01T07:21:49.691Z,60
2017-07-01T07:22:51.390Z,60
2017-07-01T07:23:53.072Z,65
2017-07-01T07:24:54.728Z,65
2017-07-01T07:25:56.382Z,75
2017-07-01T07:26:58.047Z,75
2017-07-01T07:27:59.902Z,75
2017-07-01T07:29:02.249Z,85
2017-07-01T07:30:04.026Z,80
2017-07-01T07:31:05.759Z,75
2017-07-01T07:32:07.656Z,60
2017-07-01T07:33:09.689Z,55
2017-07-01T07:34:11.431Z,45
2017-07-01T07:35:13.193Z,50
2017-07-01T07:36:15.043Z,50
2017-07-01T07:37:16.764Z,55
2017-07-01T07:38:18.618Z,55
2017-07-01T07:39:20.672Z,55
2017-07-01T07:40:22.492Z,50
2017-07-01T07:41:25.028Z,45
2017-07-01T07:42:26.754Z,50
2017-07-01T07:43:28.546Z,80
2017-07-01T07:44:30.324Z,100
2017-07-01T07:45:31.983Z,105
2017-07-01T07:46:33.773Z,110
2017-07-01T07:47:35.468Z,105
2017-07-01T07:48:37.161Z,105
2017-07-01T07:49:38.885Z,105
2017-07-01T07:50:40.830Z,110
2017-07-01T07:51:42.517Z,110
2017-07-01T07:52:44.275Z,110
2017-07-01T07:53:45.947Z,115
2017-07-01T07:54:47.622Z,115
2017-07-01T07:55:49.355Z,120
2017-07-01T07:56:51.034Z,130
2017-07-01T07:57:52.788Z,130
2017-07-01T07:58:54.573Z,130
2017-07-01T07:59:56.270Z,130
2017-07-01T08:00:58.131Z,135
2017-07-01T08:01:59.845Z,115
2017-07-01T08:03:01.501Z,105
2017-07-01T08:04:03.234Z,85
2017-07-01T08:05:04.896Z,80
2017-07-01T08:06:06.547Z,75
2017-07-01T08:07:08.202Z,85
2017-07-01T08:08:09.934Z,85
2017-07-01T08:09:11.596Z,100
2017-07-01T08:10:13.247Z,100
2017-07-01T08:11:14.902Z,100
2017-07-01T08:12:16.554Z,105
2017-07-01T08:13:18.241Z,125
2017-07-01T08:14:19.987Z,125
2017-07-01T08:15:21.665Z,125
2017-07-01T08:16:24.307Z,120
2017-07-01T08:17:26.017Z,110
2017-07-01T08:18:27.698Z,85
2017-07-01T08:19:29.458Z,85
2017-07-01T08:20:31.188Z,90
2017-07-01T08:21:32.945Z,75
2017-07-01T08:22:34.840Z,75
2017-07-01T08:23:36.495Z,80
2017-07-01T08:24:38.135Z,80
2017-07-01T08:25:39.810Z,85
2017-07-01T08:26:41.436Z,80
2017-07-01T08:27:43.099Z,70
2017-07-01T08:28:44.773Z,75
2017-07-01T08:29:46.430Z,80
2017-07-01T08:30:48.077Z,70
2017-07-01T08:31:49.771Z,75
2017-07-01T08:32:51.452Z,95
2017-07-01T08:33:53.145Z,110
2017-07-01T08:34:54.865Z,110
2017-07-01T08:35:56.527Z,130
2017-07-01T08:36:58.207Z,135
2017-07-01T08:37:59.879Z,135
2017-07-01T08:39:01.520Z,125
2017-07-01T08:40:03.161Z,110
2017-07-01T08:41:04.831Z,90
2017-07-01T08:42:06.477Z,80
2017-07-01T08:43:08.119Z,80
2017-07-01T08:44:09.911Z,90
2017-07-01T08:45:11.570Z,100
2017-07-01T08:46:13.220Z,90
2017-07-01T08:47:14.869Z,70
2017-07-01T08:48:16.504Z,75
2017-07-01T08:49:18.154Z,85
2017-07-01T08:50:19.882Z,70
2017-07-01T08:51:21.527Z,55
2017-07-01T08:52:23.170Z,50
2017-07-01T08:53:24.817Z,55
2017-07-01T08:54:26.465Z,45
2017-07-01T08:55:28.121Z,40
2017-07-01T08:56:29.870Z,35
2017-07-01T08:57:31.531Z,30
2017-07-01T08:58:33.197Z,30
2017-07-01T08:59:34.972Z,35
2017-07-01T09:00:36.646Z,40
2017-07-01T09:01:38.379Z,50
2017-07-01T09:02:40.169Z,75
2017-07-01T09:03:42.024Z,90
2017-07-01T09:04:43.980Z,95
2017-07-01T09:05:45.851Z,100
2017-07-01T09:06:48.329Z,95
2017-07-01T09:07:50.661Z,95
2017-07-01T09:08:52.463Z,80
2017-07-01T09:09:54.191Z,80
2017-07-01T09:10:57.236Z,70
2017-07-01T09:11:59.067Z,65
2017-07-01T09:13:00.924Z,60
2017-07-01T09:14:02.869Z,55
2017-07-01T09:15:04.867Z,70
2017-07-01T09:16:06.738Z,65
2017-07-01T09:17:08.644Z,80
2017-07-01T09:18:10.724Z,90
2017-07-01T09:19:12.717Z,90
2017-07-01T09:20:14.835Z,90
2017-07-01T09:21:16.843Z,65
2017-07-01T09:22:18.646Z,65
2017-07-01T09:23:20.512Z,65
2017-07-01T09:24:22.311Z,55
2017-07-01T09:25:24.214Z,55
2017-07-01T09:26:26.101Z,55
2017-07-01T09:27:27.879Z,55
2017-07-01T09:28:29.739Z,65
2017-07-01T09:29:31.591Z,60
2017-07-01T09:30:33.317Z,55
2017-07-01T09:31:35.159Z,55
2017-07-01T09:32:36.835Z,55
2017-07-01T09:33:38.547Z,55
2017-07-01T09:34:40.250Z,60
2017-07-01T09:35:41.912Z,65
2017-07-01T09:36:43.599Z,60
2017-07-01T09:37:45.286Z,60
2017-07-01T09:38:46.953Z,65
2017-07-01T09:39:48.608Z,65
2017-07-01T09:40:50.318Z,75
2017-07-01T09:41:51.977Z,65
2017-07-01T09:42:53.630Z,60
2017-07-01T09:43:55.300Z,65
2017-07-01T09:44:57.011Z,80
2017-07-01T09:45:58.725Z,100
2017-07-01T09:47:00.429Z,110
2017-07-01T09:48:02.093Z,120
2017-07-01T09:49:03.739Z,115
2017-07-01T09:50:06.415Z,120
2017-07-01T09:51:08.140Z,120
2017-07-01T09:52:09.916Z,120
2017-07-01T09:53:11.642Z,125
2017-07-01T09:54:13.438Z,135
2017-07-01T09:55:15.177Z,155
2017-07-01T09:56:16.879Z,160
2017-07-01T09:57:18.747Z,160
2017-07-01T09:58:20.494Z,195
2017-07-01T09:59:23.588Z,175
2017-07-01T10:00:25.342Z,130
2017-07-01T10:01:27.146Z,155
2017-07-01T10:02:28.847Z,120
2017-07-01T10:03:30.589Z,125
2017-07-01T10:04:32.240Z,130
2017-07-01T10:05:33.886Z,125
2017-07-01T10:06:35.666Z,115
2017-07-01T10:07:37.346Z,100
2017-07-01T10:08:39.045Z,120
2017-07-01T10:09:40.774Z,130
2017-07-01T10:10:42.475Z,105
2017-07-01T10:11:44.131Z,110
2017-07-01T10:12:45.831Z,135
2017-07-01T10:13:47.546Z,120
2017-07-01T10:14:49.236Z,120
2017-07-01T10:15:50.924Z,145
2017-07-01T10:16:52.594Z,140
2017-07-01T10:17:54.240Z,175
2017-07-01T10:18:55.933Z,160
2017-07-01T10:19:57.580Z,135
2017-07-01T10:20:59.270Z,105
2017-07-01T10:22:00.957Z,110
2017-07-01T10:23:02.665Z,110
2017-07-01T10:24:04.328Z,115
2017-07-01T10:25:06.017Z,100
2017-07-01T10:26:07.688Z,80
2017-07-01T10:27:09.390Z,60
2017-07-01T10:28:11.059Z,55
2017-07-01T10:29:12.765Z,60
2017-07-01T10:30:14.423Z,70
2017-07-01T10:31:16.072Z,65
2017-07-01T10:32:17.747Z,60
2017-07-01T10:33:19.420Z,60
2017-07-01T10:34:21.094Z,65
2017-07-01T10:35:23.939Z,70
2017-07-01T10:36:27.816Z,75
2017-07-01T10:37:31.560Z,70
2017-07-01T10:38:34.784Z,65
2017-07-01T10:39:36.590Z,60
2017-07-01T10:40:38.413Z,65
2017-07-01T10:41:40.356Z,65
2017-07-01T10:42:44.172Z,50
2017-07-01T10:43:48.044Z,50
2017-07-01T10:44:51.747Z,40
2017-07-01T10:45:53.732Z,45
2017-07-01T10:46:55.713Z,45
2017-07-01T10:47:58.992Z,50
2017-07-01T10:49:02.837Z,50
2017-07-01T10:50:04.912Z,50
2017-07-01T10:51:06.821Z,55
2017-07-01T10:52:08.715Z,55
2017-07-01T10:53:10.662Z,55
2017-07-01T10:54:12.507Z,55
2017-07-01T10:55:14.477Z,45
2017-07-01T10:56:16.700Z,45
2017-07-01T10:57:18.560Z,50
2017-07-01T10:58:20.443Z,55
2017-07-01T10:59:22.296Z,65
2017-07-01T11:00:23.993Z,65
2017-07-01T11:01:25.732Z,80
2017-07-01T11:02:27.457Z,70
2017-07-01T11:03:29.113Z,65
2017-07-01T11:04:30.832Z,75
2017-07-01T11:05:32.502Z,70
2017-07-01T11:06:34.148Z,75
2017-07-01T11:07:35.809Z,80
2017-07-01T11:08:38.387Z,75
2017-07-01T11:09:40.084Z,65
2017-07-01T11:10:41.733Z,60
2017-07-01T11:11:43.394Z,65
2017-07-01T11:12:45.109Z,70
2017-07-01T11:13:46.736Z,65
2017-07-01T11:14:48.380Z,75
2017-07-01T11:15:50.039Z,65
2017-07-01T11:16:51.682Z,80
2017-07-01T11:17:53.328Z,95
2017-07-01T11:18:54.998Z,90
2017-07-01T11:19:56.680Z,85
2017-07-01T11:20:58.287Z,80
2017-07-01T11:21:59.960Z,105
2017-07-01T11:23:01.585Z,105
2017-07-01T11:24:03.241Z,120
2017-07-01T11:25:04.906Z,125
2017-07-01T11:26:06.552Z,120
2017-07-01T11:27:08.212Z,135
2017-07-01T11:28:09.875Z,160
2017-07-01T11:29:11.608Z,180
2017-07-01T11:30:13.250Z,170
2017-07-01T11:31:14.928Z,180
2017-07-01T11:32:16.568Z,200
2017-07-01T11:33:18.206Z,200
2017-07-01T11:34:19.857Z,190
2017-07-01T11:35:21.512Z,170
2017-07-01T11:36:23.187Z,155
2017-07-01T11:37:24.835Z,135
2017-07-01T11:38:26.480Z,115
2017-07-01T11:39:28.140Z,95
2017-07-01T11:40:29.858Z,75
2017-07-01T11:41:31.520Z,65
2017-07-01T11:42:33.196Z,75
2017-07-01T11:43:34.878Z,70
2017-07-01T11:44:36.558Z,70
2017-07-01T11:45:38.315Z,80
2017-07-01T11:46:39.977Z,75
2017-07-01T11:47:41.620Z,75
2017-07-01T11:48:43.263Z,75
2017-07-01T11:49:44.913Z,60
2017-07-01T11:50:47.373Z,55
2017-07-01T11:51:49.019Z,55
2017-07-01T11:52:50.671Z,65
2017-07-01T11:53:52.308Z,75
2017-07-01T11:54:53.947Z,90
2017-07-01T11:55:55.592Z,95
2017-07-01T11:56:57.405Z,90
2017-07-01T11:57:59.049Z,90
2017-07-01T11:59:00.770Z,95
2017-07-01T12:00:02.464Z,100
2017-07-01T12:01:04.966Z,95
2017-07-01T12:02:06.622Z,85
2017-07-01T12:03:08.304Z,80
2017-07-01T12:04:09.961Z,75
2017-07-01T12:05:11.601Z,80
2017-07-01T12:06:13.250Z,95
2017-07-01T12:07:14.904Z,105
2017-07-01T12:08:16.581Z,115
2017-07-01T12:09:18.194Z,130
2017-07-01T12:10:19.871Z,130
2017-07-01T12:11:22.417Z,140
2017-07-01T12:12:24.055Z,135
2017-07-01T12:13:25.714Z,120
2017-07-01T12:14:27.362Z,110
2017-07-01T12:15:29.011Z,105
2017-07-01T12:16:30.702Z,110
2017-07-01T12:17:32.341Z,100
2017-07-01T12:18:34.002Z,95
2017-07-01T12:19:35.647Z,90
2017-07-01T12:20:37.292Z,85
2017-07-01T12:21:38.930Z,75
2017-07-01T12:22:40.630Z,75
2017-07-01T12:23:42.204Z,75
2017-07-01T12:24:43.895Z,80
2017-07-01T12:25:45.577Z,100
2017-07-01T12:26:47.480Z,120
2017-07-01T12:27:49.116Z,155
2017-07-01T12:28:50.762Z,170
2017-07-01T12:29:52.404Z,175
2017-07-01T12:30:54.045Z,165
2017-07-01T12:31:55.766Z,140
2017-07-01T12:32:57.705Z,135
2017-07-01T12:33:59.330Z,135
2017-07-01T12:35:01.030Z,130
2017-07-01T12:36:02.681Z,120
2017-07-01T12:37:04.439Z,100
2017-07-01T12:38:06.082Z,80
2017-07-01T12:39:07.976Z,75
2017-07-01T12:40:09.685Z,65
2017-07-01T12:41:11.777Z,50
2017-07-01T12:42:13.427Z,50
2017-07-01T12:43:15.076Z,55
2017-07-01T12:44:16.717Z,55
2017-07-01T12:45:18.362Z,50
2017-07-01T12:46:20.027Z,45
2017-07-01T12:47:21.664Z,40
2017-07-01T12:48:23.305Z,40
2017-07-01T12:49:24.974Z,40
2017-07-01T12:50:26.612Z,40
2017-07-01T12:51:28.308Z,45
2017-07-01T12:52:29.962Z,55
2017-07-01T12:53:31.606Z,60
2017-07-01T12:54:33.248Z,65
2017-07-01T12:55:34.897Z,65
2017-07-01T12:56:36.537Z,65
2017-07-01T12:57:38.185Z,65
2017-07-01T12:58:39.834Z,65
2017-07-01T12:59:41.483Z,65
2017-07-01T13:00:43.127Z,60
2017-07-01T13:01:44.774Z,60
2017-07-01T13:02:46.420Z,70
2017-07-01T13:03:48.059Z,80
2017-07-01T13:04:49.765Z,95
2017-07-01T13:05:51.401Z,110
2017-07-01T13:06:53.038Z,115
2017-07-01T13:07:54.689Z,130
2017-07-01T13:08:56.326Z,150
2017-07-01T13:09:57.967Z,160
2017-07-01T13:10:59.646Z,165
2017-07-01T13:12:01.862Z,155
2017-07-01T13:13:03.479Z,150
2017-07-01T13:14:05.218Z,140
2017-07-01T13:15:06.854Z,125
2017-07-01T13:16:08.561Z,115
2017-07-01T13:17:10.292Z,95
2017-07-01T13:18:12.372Z,75
2017-07-01T13:19:14.136Z,60
2017-07-01T13:20:15.842Z,55
2017-07-01T13:21:17.548Z,45
2017-07-01T18:04:11.214Z,50
2017-07-01T18:05:13.013Z,55
2017-07-01T18:06:14.800Z,55
2017-07-01T18:07:16.484Z,55
2017-07-01T18:08:18.284Z,50
2017-07-01T18:09:20.039Z,50
2017-07-01T18:10:21.934Z,40
2017-07-01T18:11:23.771Z,40
2017-07-01T18:12:25.809Z,40
2017-07-01T18:13:27.742Z,35
2017-07-01T18:14:30.274Z,35
2017-07-01T18:15:32.132Z,35
2017-07-01T18:16:34.155Z,35
2017-07-01T18:17:39.398Z,35
2017-07-01T18:18:44.378Z,30
2017-07-01T18:19:47.334Z,35
2017-07-01T18:20:52.453Z,30
2017-07-01T18:21:54.541Z,40
2017-07-01T19:04:13.128Z,15
2017-07-01T19:05:14.778Z,15
2017-07-01T19:06:16.464Z,15
2017-07-01T19:07:18.146Z,15
2017-07-01T19:08:19.785Z,15
2017-07-01T19:09:21.442Z,15
2017-07-01T19:10:23.103Z,15
2017-07-01T19:11:24.793Z,15
2017-07-01T19:12:26.473Z,15
2017-07-01T19:13:28.127Z,15
2017-07-01T19:14:29.767Z,15
2017-07-01T19:15:31.415Z,15
2017-07-01T19:16:33.058Z,10
2017-07-01T19:17:34.733Z,10
2017-07-01T19:18:36.364Z,10
2017-07-01T19:19:43.977Z,10
2017-07-01T19:20:45.612Z,10
2017-07-01T19:21:47.332Z,10
2017-07-01T19:22:48.971Z,10
2017-07-01T19:23:50.645Z,10
2017-07-01T19:24:52.321Z,10
2017-07-01T19:25:54.000Z,10
2017-07-01T19:26:55.693Z,10
2017-07-01T19:27:57.343Z,10
2017-07-01T19:28:58.991Z,5
2017-07-01T19:30:00.659Z,5
2017-07-01T19:31:02.329Z,5
2017-07-01T19:32:03.980Z,5
2017-07-01T19:33:05.659Z,5
2017-07-01T19:34:07.291Z,5
2017-07-01T19:35:08.940Z,5
2017-07-01T19:36:10.634Z,5
2017-07-01T19:37:12.261Z,5
2017-07-01T19:38:13.910Z,5
2017-07-01T19:39:15.571Z,5
2017-07-01T19:40:17.212Z,5
2017-07-01T19:41:18.901Z,5
2017-07-01T19:42:20.571Z,5
2017-07-01T19:43:22.215Z,5
2017-07-01T19:44:23.877Z,0
2017-07-01T19:45:25.507Z,0
2017-07-01T19:46:27.159Z,0
2017-07-01T19:47:29.404Z,0
2017-07-01T19:48:31.109Z,0
2017-07-01T19:49:32.742Z,0
2017-07-01T19:50:34.397Z,0
2017-07-01T19:51:36.106Z,0
2017-07-01T19:52:37.760Z,0
2017-07-01T19:53:39.423Z,0
2017-07-01T19:54:41.086Z,0
2017-07-01T19:55:42.720Z,0
2017-07-01T19:56:44.389Z,0
2017-07-01T19:57:46.915Z,0
2017-07-01T19:58:48.623Z,0
2017-07-01T19:59:50.252Z,0
2017-07-01T20:00:51.933Z,0
2017-07-01T20:01:53.625Z,0
2017-07-01T20:02:55.295Z,0
2017-07-01T20:03:56.950Z,0
2017-07-01T20:04:58.734Z,0
2017-07-01T20:06:00.406Z,0
2017-07-01T20:07:02.093Z,0
2017-07-01T20:08:03.775Z,0
2017-07-01T20:09:05.434Z,0
2017-07-01T20:10:07.149Z,0
2017-07-01T20:11:08.803Z,0